Time;durP1;ratioP1;P1;durP2;ratioP2;P2;SDS_P1;SDS_P2;PMS_P1;PMS_P2;Temp;Humidity;BMP_temperature;BMP_pressure;BME280_temperature;BME280_humidity;BME280_pressure;Samples;Min_cycle;Max_cycle;Signal;HPM_P1;HPM_P2
2023/06/01 00:01:14;;;;;;;7.20;5.40;;;;;;;8.61;82.66;98147.27;106990;1277;25324;-79
2023/06/01 00:03:44;;;;;;;10.20;5.70;;;;;;;8.60;83.35;98147.52;106999;1267;22513;-79
2023/06/01 00:06:13;;;;;;;7.70;6.00;;;;;;;8.60;83.67;98144.36;107070;1278;23896;-79
2023/06/01 00:08:41;;;;;;;8.80;6.70;;;;;;;8.59;83.28;98142.44;107015;1277;25632;-79
2023/06/01 00:11:09;;;;;;;9.10;5.30;;;;;;;8.57;82.88;98136.16;106982;1277;22561;-79
2023/06/01 00:13:37;;;;;;;10.00;5.70;;;;;;;8.55;82.80;98141.92;106952;1277;24248;-79
2023/06/01 00:16:05;;;;;;;10.20;5.70;;;;;;;8.53;82.15;98141.89;107012;1277;22631;-80
2023/06/01 00:18:33;;;;;;;7.50;5.80;;;;;;;8.55;82.52;98139.88;106977;1276;22731;-79
2023/06/01 00:21:01;;;;;;;8.10;5.80;;;;;;;8.52;82.91;98139.52;107015;1277;25271;-80
2023/06/01 00:23:29;;;;;;;8.00;6.50;;;;;;;8.44;83.65;98140.44;107041;1277;22560;-78
2023/06/01 00:25:58;;;;;;;12.30;6.30;;;;;;;8.36;83.95;98139.23;107198;1277;22525;-80
2023/06/01 00:28:27;;;;;;;9.40;6.20;;;;;;;8.30;82.95;98141.89;107083;1277;22547;-79
2023/06/01 00:30:55;;;;;;;8.80;6.10;;;;;;;8.31;82.66;98142.26;107147;1277;22573;-79
2023/06/01 00:33:23;;;;;;;7.90;6.20;;;;;;;8.33;82.73;98140.48;106986;1278;24449;-79
2023/06/01 00:35:52;;;;;;;8.60;6.20;;;;;;;8.32;82.87;98136.84;107010;1278;22637;-79
2023/06/01 00:38:20;;;;;;;7.90;6.50;;;;;;;8.29;83.03;98138.09;107109;1277;25352;-79
2023/06/01 00:40:51;;;;;;;9.90;7.10;;;;;;;8.23;83.66;98136.30;106954;1277;22650;-78
2023/06/01 00:43:19;;;;;;;8.10;6.50;;;;;;;8.15;84.96;98139.50;106952;1277;25384;-78
2023/06/01 00:45:49;;;;;;;12.00;6.80;;;;;;;8.11;85.49;98138.23;106987;1277;24318;-80
2023/06/01 00:48:17;;;;;;;10.30;6.40;;;;;;;8.07;86.47;98137.78;107087;1277;22534;-79
2023/06/01 00:50:45;;;;;;;9.20;6.20;;;;;;;8.03;87.13;98137.80;106989;1277;22527;-79
2023/06/01 00:53:18;;;;;;;7.80;6.20;;;;;;;8.00;87.33;98136.95;106967;1278;22514;-79
2023/06/01 00:55:46;;;;;;;8.00;6.10;;;;;;;7.97;87.98;98138.09;107063;1277;24206;-78
2023/06/01 00:58:15;;;;;;;9.50;6.60;;;;;;;7.94;88.19;98134.30;106744;1278;22518;-78
2023/06/01 01:00:43;;;;;;;9.10;6.50;;;;;;;7.93;88.35;98132.80;106745;1277;22763;-78
2023/06/01 01:03:13;;;;;;;9.10;7.10;;;;;;;7.93;88.09;98128.28;106755;1277;25343;-78
2023/06/01 01:05:42;;;;;;;9.80;6.70;;;;;;;7.95;89.09;98129.99;106813;1277;23898;-79
2023/06/01 01:08:33;;;;;;;8.50;7.20;;;;;;;7.96;89.58;98129.55;106578;1277;22574;-79
2023/06/01 01:11:18;;;;;;;10.50;7.00;;;;;;;7.95;89.31;98131.56;106939;1278;22533;-79
2023/06/01 01:14:03;;;;;;;12.00;6.40;;;;;;;7.96;89.07;98133.10;106918;1277;26053;-79
2023/06/01 01:16:37;;;;;;;7.90;6.90;;;;;;;7.92;88.02;98130.82;107056;1277;24256;-79
2023/06/01 01:19:42;;;;;;;9.30;6.30;;;;;;;7.95;88.30;98129.20;106616;1277;22777;-79
2023/06/01 01:22:30;;;;;;;10.60;7.80;;;;;;;7.96;87.81;98126.61;106974;1277;22532;-78
2023/06/01 01:25:20;;;;;;;9.40;7.50;;;;;;;7.97;87.64;98125.15;106845;1277;25312;-79
2023/06/01 01:28:20;;;;;;;10.00;7.10;;;;;;;7.97;87.69;98126.77;107047;1277;22670;-81
2023/06/01 01:30:52;;;;;;;10.90;7.70;;;;;;;7.93;87.49;98125.13;107068;1277;25312;-80
2023/06/01 01:33:21;;;;;;;12.70;6.80;;;;;;;7.91;87.50;98123.27;107058;1271;22537;-79
2023/06/01 01:35:50;;;;;;;10.10;7.60;;;;;;;7.86;87.78;98118.71;107204;1278;24297;-79
2023/06/01 01:38:18;;;;;;;10.10;7.70;;;;;;;7.83;88.08;98117.77;107165;1277;24203;-79
2023/06/01 01:40:46;;;;;;;10.60;8.20;;;;;;;7.76;88.87;98115.39;107194;1278;25339;-78
2023/06/01 01:43:15;;;;;;;10.10;7.30;;;;;;;7.69;89.38;98109.20;106895;1277;22518;-78
2023/06/01 01:45:46;;;;;;;11.10;8.30;;;;;;;7.66;89.97;98108.34;107121;1277;22524;-79
2023/06/01 01:48:38;;;;;;;11.20;7.50;;;;;;;7.66;89.82;98102.54;107149;1277;22540;-78
2023/06/01 01:51:13;;;;;;;7.80;6.70;;;;;;;7.69;89.72;98103.93;107130;1278;25408;-78
2023/06/01 01:53:44;;;;;;;14.20;6.80;;;;;;;7.69;89.57;98101.63;107124;1277;22527;-79
2023/06/01 01:56:13;;;;;;;10.60;7.10;;;;;;;7.66;89.22;98102.23;106990;1277;25423;-79
2023/06/01 01:58:42;;;;;;;10.60;7.10;;;;;;;7.64;89.15;98108.56;107101;1277;24230;-78
2023/06/01 02:01:12;;;;;;;12.90;8.00;;;;;;;7.59;89.98;98103.00;106927;1277;22673;-79
2023/06/01 02:03:40;;;;;;;9.90;7.60;;;;;;;7.58;90.73;98101.92;107100;1277;22524;-79
2023/06/01 02:06:08;;;;;;;11.70;8.30;;;;;;;7.56;91.72;98101.30;107091;1277;22514;-79
2023/06/01 02:08:36;;;;;;;12.90;7.90;;;;;;;7.51;91.61;98099.39;107059;1277;24374;-79
2023/06/01 02:11:04;;;;;;;13.90;8.00;;;;;;;7.47;91.81;98100.58;106931;1277;22569;-79
2023/06/01 02:13:32;;;;;;;10.20;8.50;;;;;;;7.44;91.82;98094.80;106999;1277;25280;-79
2023/06/01 02:16:00;;;;;;;12.00;8.30;;;;;;;7.41;91.49;98094.05;106862;1277;22577;-79
2023/06/01 02:18:29;;;;;;;9.30;7.50;;;;;;;7.43;90.69;98095.29;107011;1277;22548;-79
2023/06/01 02:20:57;;;;;;;9.30;7.20;;;;;;;7.45;91.01;98090.89;106949;1277;23273;-79
2023/06/01 02:23:26;;;;;;;11.10;8.90;;;;;;;7.41;92.30;98089.13;107190;1277;25277;-79
2023/06/01 02:25:54;;;;;;;15.90;9.00;;;;;;;7.41;92.55;98085.22;107131;1277;25333;-79
2023/06/01 02:28:22;;;;;;;13.10;8.30;;;;;;;7.37;92.46;98089.45;106993;1277;26178;-79
2023/06/01 02:30:51;;;;;;;13.00;7.80;;;;;;;7.33;91.65;98091.89;107080;1277;22545;-80
2023/06/01 02:33:19;;;;;;;9.60;7.70;;;;;;;7.35;90.72;98091.39;107171;1277;22538;-80
2023/06/01 02:35:47;;;;;;;11.50;8.30;;;;;;;7.37;90.43;98088.65;106965;1277;25407;-80
2023/06/01 02:38:15;;;;;;;11.30;7.80;;;;;;;7.36;90.95;98087.96;106900;1278;25469;-79
2023/06/01 02:40:43;;;;;;;12.50;8.50;;;;;;;7.28;91.58;98084.28;106761;1278;22534;-79
2023/06/01 02:43:12;;;;;;;11.80;8.70;;;;;;;7.22;91.80;98081.84;106987;1278;25438;-79
2023/06/01 02:45:40;;;;;;;14.40;8.40;;;;;;;7.21;91.48;98078.46;106487;1278;22616;-79
2023/06/01 02:48:08;;;;;;;11.50;8.80;;;;;;;7.20;92.17;98079.70;106793;1278;22522;-79
2023/06/01 02:50:36;;;;;;;13.20;8.20;;;;;;;7.18;93.05;98078.48;106905;1278;22564;-79
2023/06/01 02:53:05;;;;;;;10.00;8.60;;;;;;;7.19;93.79;98075.35;106842;1256;23901;-79
2023/06/01 02:55:33;;;;;;;12.50;8.90;;;;;;;7.24;94.07;98072.92;106951;1278;22616;-79
2023/06/01 02:58:29;;;;;;;11.50;8.80;;;;;;;7.29;93.94;98073.73;106872;1278;22527;-79
2023/06/01 03:01:07;;;;;;;10.90;7.80;;;;;;;7.31;94.35;98071.73;106851;1278;22615;-79
2023/06/01 03:03:35;;;;;;;10.70;8.60;;;;;;;7.32;95.27;98072.80;106803;1276;22534;-80
2023/06/01 03:06:05;;;;;;;9.90;8.00;;;;;;;7.32;94.81;98072.41;107013;1278;22777;-80
2023/06/01 03:08:52;;;;;;;11.40;8.10;;;;;;;7.32;95.21;98072.20;106808;1276;24536;-80
2023/06/01 03:11:41;;;;;;;10.60;8.90;;;;;;;7.33;95.53;98069.80;106876;1278;22804;-79
2023/06/01 03:14:09;;;;;;;14.60;8.90;;;;;;;7.36;95.79;98074.99;106822;1278;22558;-79
2023/06/01 03:16:37;;;;;;;12.00;8.70;;;;;;;7.40;96.01;98072.35;106794;1278;22545;-79
2023/06/01 03:19:13;;;;;;;13.90;9.10;;;;;;;7.46;95.97;98071.24;106992;1278;25294;-78
2023/06/01 03:21:42;;;;;;;13.00;9.50;;;;;;;7.49;96.27;98071.36;107010;1278;22581;-79
2023/06/01 03:24:12;;;;;;;13.30;8.90;;;;;;;7.53;96.34;98071.55;106986;1278;22581;-79
2023/06/01 03:26:40;;;;;;;10.70;8.50;;;;;;;7.58;96.75;98074.42;106802;1278;22732;-78
2023/06/01 03:29:08;;;;;;;11.90;9.30;;;;;;;7.63;96.74;98076.55;106832;1278;25249;-79
2023/06/01 03:31:37;;;;;;;14.80;9.40;;;;;;;7.68;96.87;98079.90;106829;1278;22788;-79
2023/06/01 03:34:05;;;;;;;14.10;9.10;;;;;;;7.76;97.09;98078.80;106907;1272;25640;-79
2023/06/01 03:36:35;;;;;;;12.80;8.60;;;;;;;7.84;97.09;98078.54;107043;1277;22623;-79
2023/06/01 03:39:08;;;;;;;12.60;9.10;;;;;;;7.89;97.08;98079.16;106975;1277;22521;-79
2023/06/01 03:41:37;;;;;;;13.70;9.10;;;;;;;7.94;97.23;98077.69;106997;1277;22533;-79
2023/06/01 03:44:05;;;;;;;12.20;9.10;;;;;;;8.02;96.75;98077.42;107014;1275;22982;-79
2023/06/01 03:46:33;;;;;;;10.60;8.80;;;;;;;8.11;96.25;98070.01;107027;1277;25238;-78
2023/06/01 03:49:01;;;;;;;11.00;8.90;;;;;;;8.17;95.90;98071.73;106901;1277;22524;-78
2023/06/01 03:51:31;;;;;;;11.60;8.40;;;;;;;8.21;96.06;98073.21;106988;1277;25607;-79
2023/06/01 03:53:59;;;;;;;11.90;9.70;;;;;;;8.27;96.27;98072.98;107021;1271;22618;-79
2023/06/01 03:56:28;;;;;;;13.10;9.80;;;;;;;8.31;96.12;98071.38;107068;1277;25437;-79
2023/06/01 03:59:00;;;;;;;14.60;9.40;;;;;;;8.44;96.09;98071.81;107034;1256;22605;-79
2023/06/01 04:01:29;;;;;;;15.80;11.00;;;;;;;8.58;96.05;98072.19;106998;1277;22793;-79
2023/06/01 04:03:57;;;;;;;17.00;11.00;;;;;;;8.70;96.06;98072.02;106993;1270;24203;-78
2023/06/01 04:06:29;;;;;;;13.70;9.70;;;;;;;8.87;95.94;98070.75;106992;1277;22652;-79
2023/06/01 04:09:00;;;;;;;14.40;11.70;;;;;;;9.11;96.89;98066.81;106941;1277;22546;-78
2023/06/01 04:11:28;;;;;;;31.90;13.60;;;;;;;9.47;97.23;98064.90;106949;1277;22727;-78
2023/06/01 04:13:56;;;;;;;33.70;12.40;;;;;;;9.84;97.81;98067.67;107099;1277;24327;-78
2023/06/01 04:16:26;;;;;;;12.80;11.20;;;;;;;10.15;97.48;98061.49;107085;1277;22643;-79
2023/06/01 04:18:54;;;;;;;18.10;12.40;;;;;;;10.43;97.38;98060.00;106770;1277;22633;-79
2023/06/01 04:21:27;;;;;;;16.50;13.30;;;;;;;10.77;97.15;98064.63;107045;1277;22521;-79
2023/06/01 04:23:55;;;;;;;14.40;12.70;;;;;;;11.13;97.19;98064.91;106979;1277;22919;-81
2023/06/01 04:26:25;;;;;;;18.20;13.90;;;;;;;11.43;96.22;98067.15;106982;1278;22673;-80
2023/06/01 04:28:56;;;;;;;17.10;14.00;;;;;;;11.57;95.76;98066.23;107088;1277;24609;-80
2023/06/01 04:31:25;;;;;;;37.00;15.10;;;;;;;11.71;95.31;98068.02;107129;1277;22524;-79
2023/06/01 04:33:53;;;;;;;20.90;13.40;;;;;;;11.83;95.08;98066.73;106974;1277;25335;-79
2023/06/01 04:36:27;;;;;;;16.30;13.30;;;;;;;11.97;94.91;98066.51;107164;1277;22531;-79
2023/06/01 04:38:58;;;;;;;14.10;12.70;;;;;;;12.14;94.54;98064.19;107098;1270;22515;-79
2023/06/01 04:41:28;;;;;;;16.40;13.10;;;;;;;12.29;94.00;98062.55;107164;1277;22648;-79
2023/06/01 04:43:58;;;;;;;14.60;13.00;;;;;;;12.43;92.55;98061.46;106905;1277;22547;-78
2023/06/01 04:46:27;;;;;;;15.20;11.50;;;;;;;12.59;92.68;98058.29;106885;1277;23067;-78
2023/06/01 04:49:00;;;;;;;22.70;13.10;;;;;;;12.77;92.59;98053.09;107188;1277;22588;-79
2023/06/01 04:51:30;;;;;;;16.70;11.70;;;;;;;12.93;92.30;98049.42;107077;1277;22513;-79
2023/06/01 04:53:59;;;;;;;15.60;12.30;;;;;;;13.06;92.10;98049.45;107101;1270;25239;-79
2023/06/01 04:56:28;;;;;;;18.80;11.90;;;;;;;13.19;92.02;98051.67;107170;1255;25329;-79
2023/06/01 04:58:56;;;;;;;17.60;13.10;;;;;;;13.28;90.37;98049.00;107176;1277;24267;-78
2023/06/01 05:01:29;;;;;;;17.00;12.30;;;;;;;13.35;88.21;98051.98;107056;1277;22523;-79
2023/06/01 05:03:58;;;;;;;19.10;13.40;;;;;;;13.45;88.10;98044.16;107012;1277;22588;-79
2023/06/01 05:06:27;;;;;;;19.40;12.80;;;;;;;13.57;88.35;98043.19;107102;1277;22655;-79
2023/06/01 05:08:55;;;;;;;20.80;13.30;;;;;;;13.70;88.10;98045.89;107038;1277;22479;-79
2023/06/01 05:11:24;;;;;;;16.90;13.10;;;;;;;13.81;88.21;98046.27;107167;1277;26621;-79
2023/06/01 05:13:52;;;;;;;17.80;13.00;;;;;;;13.91;87.18;98043.91;107156;1269;22595;-80
2023/06/01 05:16:21;;;;;;;21.00;14.20;;;;;;;14.02;87.61;98038.55;107067;1267;22707;-79
2023/06/01 05:18:51;;;;;;;17.60;11.40;;;;;;;14.10;86.69;98039.33;107157;1269;22525;-79
2023/06/01 05:21:20;;;;;;;17.90;12.20;;;;;;;14.18;85.76;98038.16;107187;1277;24732;-78
2023/06/01 05:23:48;;;;;;;16.60;12.70;;;;;;;14.29;86.14;98036.09;107107;1277;23027;-78
2023/06/01 05:26:16;;;;;;;16.10;12.10;;;;;;;14.42;85.75;98035.84;107209;1277;22475;-79
2023/06/01 05:28:44;;;;;;;16.00;12.10;;;;;;;14.54;85.15;98034.16;107174;1277;22614;-77
2023/06/01 05:31:12;;;;;;;17.60;13.70;;;;;;;14.76;84.63;98033.91;107184;1277;22554;-78
2023/06/01 05:33:47;;;;;;;19.00;12.70;;;;;;;15.10;85.07;98039.36;106694;1278;25496;-79
2023/06/01 05:36:16;;;;;;;22.00;12.80;;;;;;;15.21;83.43;98039.22;107131;1277;22572;-80
2023/06/01 05:38:44;;;;;;;26.00;14.70;;;;;;;15.32;83.81;98036.40;107124;1277;22557;-81
2023/06/01 05:41:12;;;;;;;19.30;14.90;;;;;;;15.40;83.49;98034.77;107237;1277;25543;-80
2023/06/01 05:43:41;;;;;;;19.00;13.20;;;;;;;15.47;83.43;98033.73;107216;1277;22554;-80
2023/06/01 05:46:09;;;;;;;17.50;12.80;;;;;;;15.52;83.33;98032.21;107136;1277;22585;-79
2023/06/01 05:48:38;;;;;;;20.00;11.80;;;;;;;15.60;83.12;98030.61;107034;1276;24349;-79
2023/06/01 05:51:10;;;;;;;16.30;11.80;;;;;;;15.75;81.99;98029.11;106839;1278;139838;-80
2023/06/01 05:53:38;;;;;;;24.90;12.70;;;;;;;15.89;81.54;98027.97;106913;1278;22524;-77
2023/06/01 05:56:06;;;;;;;16.90;12.10;;;;;;;15.91;80.39;98030.58;106918;1272;22557;-77
2023/06/01 05:58:34;;;;;;;20.10;12.80;;;;;;;15.95;80.26;98026.75;106645;1277;22730;-78
2023/06/01 06:01:03;;;;;;;16.60;11.90;;;;;;;15.99;79.85;98023.91;106944;1275;22534;-76
2023/06/01 06:03:31;;;;;;;18.10;12.40;;;;;;;16.07;79.78;98028.23;106833;1277;25217;-77
2023/06/01 06:06:00;;;;;;;26.30;12.70;;;;;;;16.15;79.20;98028.23;107147;1277;22618;-78
2023/06/01 06:08:28;;;;;;;24.30;13.00;;;;;;;16.25;79.44;98027.57;107135;1277;23597;-77
2023/06/01 06:10:56;;;;;;;26.50;14.90;;;;;;;16.34;78.89;98027.30;107179;1270;22553;-77
2023/06/01 06:13:24;;;;;;;17.60;12.90;;;;;;;16.41;79.01;98028.23;107103;1277;22579;-78
2023/06/01 06:15:52;;;;;;;25.90;13.20;;;;;;;16.49;78.41;98025.41;107140;1266;25385;-77
2023/06/01 06:18:20;;;;;;;15.70;10.90;;;;;;;16.54;77.58;98027.54;107196;1277;25342;-77
2023/06/01 06:20:48;;;;;;;20.20;12.00;;;;;;;16.63;76.78;98028.05;107097;1277;22696;-78
2023/06/01 06:23:16;;;;;;;23.80;12.60;;;;;;;16.71;76.81;98026.10;107208;1262;25258;-77
2023/06/01 06:25:45;;;;;;;19.70;11.70;;;;;;;16.78;76.20;98026.63;107178;1277;24228;-78
2023/06/01 06:28:14;;;;;;;19.50;12.50;;;;;;;16.83;75.72;98027.09;107209;1277;22535;-78
2023/06/01 06:30:42;;;;;;;105.00;19.20;;;;;;;16.94;75.64;98025.34;107082;1277;23249;-79
2023/06/01 06:33:11;;;;;;;24.50;12.60;;;;;;;17.10;75.76;98021.23;107094;1277;23563;-78
2023/06/01 06:35:42;;;;;;;17.90;11.80;;;;;;;17.20;73.79;98025.14;107114;1277;25361;-78
2023/06/01 06:38:13;;;;;;;21.00;12.50;;;;;;;17.26;72.49;98025.55;107074;1273;25520;-77
2023/06/01 06:40:41;;;;;;;18.50;11.20;;;;;;;17.31;72.18;98024.08;106735;1278;23027;-79
2023/06/01 06:43:09;;;;;;;18.20;11.20;;;;;;;17.42;72.88;98019.47;106993;1278;22567;-77
2023/06/01 06:45:37;;;;;;;21.10;12.20;;;;;;;17.52;71.51;98019.48;106706;1278;25613;-80
2023/06/01 06:48:05;;;;;;;19.10;12.50;;;;;;;17.53;71.12;98016.70;107167;1278;23037;-79
2023/06/01 06:50:33;;;;;;;15.60;10.30;;;;;;;17.64;72.36;98015.16;106900;1278;22647;-78
2023/06/01 06:53:01;;;;;;;18.70;12.50;;;;;;;17.85;72.41;98016.60;106856;1278;24637;-77
2023/06/01 06:55:29;;;;;;;21.30;11.50;;;;;;;17.96;70.12;98009.46;106809;1278;22524;-77
2023/06/01 06:57:57;;;;;;;22.30;11.80;;;;;;;18.04;68.17;98005.59;106710;1278;23888;-79
2023/06/01 07:00:25;;;;;;;18.60;11.30;;;;;;;18.05;68.71;98008.88;106985;1277;22579;-79
2023/06/01 07:02:55;;;;;;;16.90;10.10;;;;;;;18.14;69.18;98004.25;107100;1277;24194;-78
2023/06/01 07:05:23;;;;;;;16.70;12.40;;;;;;;18.31;69.76;98001.05;107210;1277;25566;-78
2023/06/01 07:07:51;;;;;;;18.60;11.80;;;;;;;18.50;69.11;97998.38;107143;1277;23888;-78
2023/06/01 07:10:19;;;;;;;16.50;11.50;;;;;;;18.65;69.05;98000.50;107041;1273;22612;-78
2023/06/01 07:12:47;;;;;;;18.30;10.70;;;;;;;18.81;67.27;97997.52;107010;1277;22598;-78
2023/06/01 07:15:16;;;;;;;14.50;9.80;;;;;;;18.91;65.72;97997.29;107003;1277;22642;-78
2023/06/01 07:17:44;;;;;;;21.70;12.00;;;;;;;18.96;64.16;97994.38;106990;1277;22577;-78
2023/06/01 07:20:12;;;;;;;16.60;11.30;;;;;;;19.01;63.09;97993.65;106956;1277;26054;-77
2023/06/01 07:22:40;;;;;;;16.10;10.20;;;;;;;19.09;63.79;97992.04;106986;1277;23387;-78
2023/06/01 07:25:10;;;;;;;15.30;10.50;;;;;;;19.23;62.89;97994.58;106959;1277;24193;-78
2023/06/01 07:27:42;;;;;;;20.90;10.80;;;;;;;19.32;63.82;97992.21;106908;1277;22523;-78
2023/06/01 07:30:12;;;;;;;17.00;9.90;;;;;;;19.45;63.71;97990.75;107206;1270;22523;-78
2023/06/01 07:32:40;;;;;;;14.60;9.20;;;;;;;19.53;62.16;97994.59;106851;1278;25444;-78
2023/06/01 07:35:09;;;;;;;14.70;7.60;;;;;;;19.68;63.17;97991.90;106958;1277;25231;-79
2023/06/01 07:37:37;;;;;;;15.80;7.40;;;;;;;19.90;63.80;97987.70;106781;1277;22528;-78
2023/06/01 07:40:06;;;;;;;13.80;7.00;;;;;;;20.04;59.59;97990.96;107037;1271;22800;-78
2023/06/01 07:42:35;;;;;;;14.40;6.60;;;;;;;20.09;57.18;97987.39;106938;1278;23344;-79
2023/06/01 07:45:05;;;;;;;12.10;6.30;;;;;;;20.13;56.20;97986.46;106962;1278;22555;-79
2023/06/01 07:47:33;;;;;;;16.00;6.00;;;;;;;20.20;57.50;97982.48;107022;1278;22520;-78
2023/06/01 07:50:02;;;;;;;9.80;5.70;;;;;;;20.32;55.97;97980.13;107078;1256;24203;-78
2023/06/01 07:52:31;;;;;;;13.10;5.60;;;;;;;20.38;54.88;97982.13;106987;1278;23398;-78
2023/06/01 07:54:59;;;;;;;10.60;5.90;;;;;;;20.49;56.58;97976.08;106925;1278;23912;-78
2023/06/01 07:57:27;;;;;;;23.20;5.80;;;;;;;20.61;53.31;97971.17;106965;1256;22818;-78
2023/06/01 07:59:55;;;;;;;15.30;6.00;;;;;;;20.71;54.66;97970.27;106921;1277;25407;-77
2023/06/01 08:02:23;;;;;;;9.70;5.60;;;;;;;20.86;52.44;97971.30;106893;1278;22574;-77
2023/06/01 08:04:52;;;;;;;10.00;4.70;;;;;;;20.98;51.70;97967.90;106922;1262;23173;-78
2023/06/01 08:07:22;;;;;;;11.00;5.50;;;;;;;21.06;50.89;97969.06;106812;1269;25927;-77
2023/06/01 08:09:52;;;;;;;13.20;5.00;;;;;;;21.06;49.57;97968.73;106961;1276;25274;-76
2023/06/01 08:12:20;;;;;;;9.70;4.60;;;;;;;21.11;52.28;97961.45;107101;1277;25319;-77
2023/06/01 08:14:48;;;;;;;9.90;4.70;;;;;;;21.26;47.64;97962.40;107107;1277;24371;-77
2023/06/01 08:17:18;;;;;;;7.00;4.60;;;;;;;21.28;47.09;97964.08;106755;1277;22548;-77
2023/06/01 08:19:47;;;;;;;7.90;4.00;;;;;;;21.37;47.61;97961.41;107140;1277;22540;-77
2023/06/01 08:22:16;;;;;;;5.30;3.50;;;;;;;21.50;47.71;97954.89;107136;1277;22511;-77
2023/06/01 08:24:45;;;;;;;7.30;3.60;;;;;;;21.56;45.43;97959.20;107004;1278;22554;-77
2023/06/01 08:27:18;;;;;;;9.20;3.70;;;;;;;21.64;45.25;97956.17;107127;1278;24066;-79
2023/06/01 08:29:48;;;;;;;7.50;3.90;;;;;;;21.74;45.16;97951.23;106956;1278;24263;-79
2023/06/01 08:32:17;;;;;;;9.00;4.00;;;;;;;21.78;41.92;97950.11;107086;1277;22532;-77
2023/06/01 08:34:46;;;;;;;8.00;4.20;;;;;;;21.86;45.01;97943.80;107173;1277;22533;-78
2023/06/01 08:37:15;;;;;;;11.80;4.60;;;;;;;22.02;44.07;97943.36;107188;1277;26515;-78
2023/06/01 08:39:43;;;;;;;11.10;4.90;;;;;;;22.16;43.67;97941.66;107158;1277;22646;-78
2023/06/01 08:42:14;;;;;;;12.50;5.50;;;;;;;22.18;43.78;97936.05;107174;1277;22642;-78
2023/06/01 08:44:42;;;;;;;6.50;3.80;;;;;;;22.21;40.99;97945.80;107216;1277;24395;-78
2023/06/01 08:47:10;;;;;;;9.70;4.30;;;;;;;22.16;40.21;97940.33;107168;1273;22633;-78
2023/06/01 08:49:41;;;;;;;7.60;4.30;;;;;;;22.10;41.34;97933.02;107181;1277;22525;-81
2023/06/01 08:52:13;;;;;;;5.30;3.50;;;;;;;22.15;40.82;97937.19;107296;1273;25217;-77
2023/06/01 08:54:41;;;;;;;7.00;4.20;;;;;;;22.23;40.34;97933.98;107212;1277;25217;-78
2023/06/01 08:57:10;;;;;;;7.90;4.10;;;;;;;22.33;39.37;97929.41;107193;1277;25374;-77
2023/06/01 08:59:39;;;;;;;8.00;4.10;;;;;;;22.34;39.16;97927.45;106744;1277;22536;-77
2023/06/01 09:02:08;;;;;;;12.00;4.00;;;;;;;22.42;39.82;97927.77;106578;1278;22512;-78
2023/06/01 09:04:41;;;;;;;7.40;3.90;;;;;;;22.47;39.23;97925.46;106929;1278;25272;-77
2023/06/01 09:07:11;;;;;;;8.30;4.00;;;;;;;22.44;37.50;97924.50;107081;1272;22574;-78
2023/06/01 09:09:39;;;;;;;6.50;3.80;;;;;;;22.36;37.61;97923.00;106835;1277;22785;-78
2023/06/01 09:12:23;;;;;;;7.50;4.30;;;;;;;22.33;37.74;97913.71;107208;1275;22662;-78
2023/06/01 09:15:11;;;;;;;6.80;3.70;;;;;;;22.47;38.89;97908.52;107333;1277;26534;-78
2023/06/01 09:17:40;;;;;;;8.80;5.00;;;;;;;22.72;39.71;97905.38;107215;1254;22625;-79
2023/06/01 09:20:13;;;;;;;10.40;4.90;;;;;;;22.91;37.78;97906.71;107193;1277;22652;-78
2023/06/01 09:22:45;;;;;;;10.90;4.40;;;;;;;22.93;36.49;97906.65;107242;1277;22572;-79
2023/06/01 09:25:14;;;;;;;12.80;5.00;;;;;;;22.85;36.26;97906.91;107093;1277;22598;-78
2023/06/01 09:27:48;;;;;;;6.60;4.30;;;;;;;22.81;36.21;97906.64;107182;1277;23316;-79
2023/06/01 09:30:19;;;;;;;13.20;4.30;;;;;;;22.78;36.26;97905.84;107184;1277;23369;-79
2023/06/01 09:32:50;;;;;;;10.00;3.90;;;;;;;22.89;36.63;97907.41;107012;1277;25350;-79
2023/06/01 09:35:47;;;;;;;10.00;4.10;;;;;;;23.03;36.45;97905.59;107062;1277;22521;-79
2023/06/01 09:38:26;;;;;;;8.20;4.10;;;;;;;23.07;35.11;97902.17;107193;1277;22520;-78
2023/06/01 09:40:59;;;;;;;7.70;3.90;;;;;;;23.05;34.89;97899.00;107165;1277;22534;-79
2023/06/01 09:43:27;;;;;;;24.00;5.30;;;;;;;23.07;35.36;97900.75;107182;1277;25381;-78
2023/06/01 09:46:11;;;;;;;8.70;4.20;;;;;;;23.23;35.06;97896.70;107212;1277;24279;-78
2023/06/01 09:48:42;;;;;;;6.50;3.90;;;;;;;23.34;34.02;97897.95;107273;1275;22554;-78
2023/06/01 09:51:29;;;;;;;8.60;4.00;;;;;;;23.36;34.68;97898.28;107330;1270;22521;-79
2023/06/01 09:53:57;;;;;;;10.10;4.30;;;;;;;23.57;35.45;97896.98;107109;1277;25297;-78
2023/06/01 09:56:26;;;;;;;10.30;4.50;;;;;;;23.78;34.23;97886.96;106820;1277;22666;-78
2023/06/01 09:59:01;;;;;;;10.40;4.20;;;;;;;23.86;34.27;97886.14;107180;1277;22582;-78
2023/06/01 10:01:31;;;;;;;8.10;4.60;;;;;;;24.02;34.68;97884.24;107204;1272;22517;-78
2023/06/01 10:04:00;;;;;;;12.10;4.40;;;;;;;24.10;34.08;97885.20;107181;1277;22549;-78
2023/06/01 10:06:33;;;;;;;7.30;3.20;;;;;;;24.14;33.30;97880.25;107211;1277;22521;-78
2023/06/01 10:09:01;;;;;;;8.10;3.80;;;;;;;24.10;32.47;97877.41;107270;1277;22566;-78
2023/06/01 10:11:30;;;;;;;7.10;3.70;;;;;;;24.21;31.99;97880.74;107011;1275;22538;-78
2023/06/01 10:14:00;;;;;;;9.10;3.90;;;;;;;24.21;32.23;97877.85;107215;1277;24222;-78
2023/06/01 10:16:28;;;;;;;8.90;4.30;;;;;;;24.21;32.69;97874.92;107088;1277;22522;-78
2023/06/01 10:18:57;;;;;;;7.70;3.80;;;;;;;24.33;32.86;97867.56;107129;1277;22564;-78
2023/06/01 10:21:26;;;;;;;8.80;4.40;;;;;;;24.51;33.45;97869.10;107143;1277;23925;-78
2023/06/01 10:23:54;;;;;;;12.00;4.20;;;;;;;24.59;31.71;97869.83;107323;1277;22717;-78
2023/06/01 10:26:26;;;;;;;9.10;4.10;;;;;;;24.52;32.39;97873.20;107297;1277;22560;-77
2023/06/01 10:28:55;;;;;;;6.30;3.90;;;;;;;24.54;32.24;97865.97;107394;1277;24075;-77
2023/06/01 10:31:38;;;;;;;7.30;3.80;;;;;;;24.53;31.76;97859.83;107147;1278;24341;-79
2023/06/01 10:34:09;;;;;;;9.30;3.80;;;;;;;24.39;31.97;97861.14;107259;1278;23906;-79
2023/06/01 10:36:53;;;;;;;8.30;4.40;;;;;;;24.46;32.82;97855.48;107232;1277;24231;-79
2023/06/01 10:39:21;;;;;;;6.50;4.00;;;;;;;24.72;33.08;97846.23;107227;1277;23916;-78
2023/06/01 10:41:49;;;;;;;11.00;4.00;;;;;;;24.89;32.46;97842.66;107168;1277;22644;-79
2023/06/01 10:44:39;;;;;;;9.50;4.00;;;;;;;24.91;32.24;97842.59;107117;1277;22599;-79
2023/06/01 10:47:10;;;;;;;8.40;4.50;;;;;;;25.01;32.14;97841.70;107141;1277;22555;-78
2023/06/01 10:50:01;;;;;;;10.10;4.60;;;;;;;24.96;32.00;97842.50;107212;1277;22521;-77
2023/06/01 10:52:35;;;;;;;8.40;4.50;;;;;;;24.77;32.38;97844.25;106704;1267;24251;-77
2023/06/01 10:55:07;;;;;;;11.90;4.60;;;;;;;24.67;33.13;97835.36;106752;1277;25507;-77
2023/06/01 10:57:39;;;;;;;11.70;4.40;;;;;;;24.77;32.65;97835.04;107191;1277;25470;-78
2023/06/01 11:00:14;;;;;;;8.20;4.60;;;;;;;24.81;32.14;97835.35;106716;1277;22920;-79
2023/06/01 11:02:59;;;;;;;10.10;4.00;;;;;;;24.81;31.71;97839.67;106868;1277;22459;-78
2023/06/01 11:05:36;;;;;;;7.00;4.00;;;;;;;24.76;32.43;97827.71;107266;1277;22652;-78
2023/06/01 11:08:23;;;;;;;12.10;4.20;;;;;;;24.83;32.17;97825.82;107328;1277;24200;-78
2023/06/01 11:10:58;;;;;;;13.30;4.40;;;;;;;24.82;32.06;97821.97;107339;1277;24082;-79
2023/06/01 11:13:29;;;;;;;13.80;5.10;;;;;;;24.77;32.31;97823.79;107217;1277;25325;-79
2023/06/01 11:16:03;;;;;;;7.90;4.20;;;;;;;24.89;32.39;97812.81;107308;1277;24278;-78
2023/06/01 11:18:49;;;;;;;7.90;4.00;;;;;;;24.97;32.30;97813.44;107315;1277;22593;-78
2023/06/01 11:21:24;;;;;;;6.00;3.70;;;;;;;24.93;31.72;97818.02;107254;1274;23337;-78
2023/06/01 11:23:54;;;;;;;7.70;4.50;;;;;;;24.95;31.99;97817.46;107336;1277;25306;-78
2023/06/01 11:26:34;;;;;;;8.70;3.90;;;;;;;25.00;31.83;97813.74;107288;1277;24375;-78
2023/06/01 11:29:07;;;;;;;10.40;4.70;;;;;;;25.10;32.05;97806.41;107160;1277;22559;-78
2023/06/01 11:31:38;;;;;;;11.80;4.60;;;;;;;25.35;32.36;97803.69;107132;1277;22531;-79
2023/06/01 11:34:07;;;;;;;11.00;4.40;;;;;;;25.73;32.49;97800.70;107254;1277;22723;-79
2023/06/01 11:36:37;;;;;;;7.70;4.00;;;;;;;26.21;32.36;97794.60;107193;1277;22636;-78